sensor_id;sensor_type;location;lat;lon;timestamp;P1;durP1;ratioP1;P2;durP2;ratioP2
45408;SDS011;31162;51.076;3.784;2024-01-07T00:01:00;5.22;;;4.47;;
45408;SDS011;31162;51.076;3.784;2024-01-07T00:03:25;6.45;;;4.55;;
45408;SDS011;31162;51.076;3.784;2024-01-07T00:05:51;5.93;;;4.63;;
45408;SDS011;31162;51.076;3.784;2024-01-07T00:08:17;5.82;;;4.80;;
45408;SDS011;31162;51.076;3.784;2024-01-07T00:10:42;5.70;;;5.13;;
45408;SDS011;31162;51.076;3.784;2024-01-07T00:13:08;5.75;;;4.80;;
45408;SDS011;31162;51.076;3.784;2024-01-07T00:15:33;6.07;;;4.55;;
45408;SDS011;31162;51.076;3.784;2024-01-07T00:17:59;4.78;;;4.10;;
45408;SDS011;31162;51.076;3.784;2024-01-07T00:20:25;6.07;;;4.68;;
45408;SDS011;31162;51.076;3.784;2024-01-07T00:22:50;5.57;;;5.03;;
45408;SDS011;31162;51.076;3.784;2024-01-07T00:25:16;9.20;;;6.13;;
45408;SDS011;31162;51.076;3.784;2024-01-07T00:27:43;7.20;;;6.50;;
45408;SDS011;31162;51.076;3.784;2024-01-07T00:30:09;9.43;;;6.38;;
45408;SDS011;31162;51.076;3.784;2024-01-07T00:32:35;6.93;;;6.15;;
45408;SDS011;31162;51.076;3.784;2024-01-07T00:35:01;9.45;;;6.07;;
45408;SDS011;31162;51.076;3.784;2024-01-07T00:37:27;9.38;;;6.40;;
45408;SDS011;31162;51.076;3.784;2024-01-07T00:39:53;8.65;;;6.53;;
45408;SDS011;31162;51.076;3.784;2024-01-07T00:42:19;7.90;;;6.32;;
45408;SDS011;31162;51.076;3.784;2024-01-07T00:44:44;7.00;;;5.93;;
45408;SDS011;31162;51.076;3.784;2024-01-07T00:47:10;8.50;;;5.97;;
45408;SDS011;31162;51.076;3.784;2024-01-07T00:49:35;8.38;;;6.20;;
45408;SDS011;31162;51.076;3.784;2024-01-07T00:52:01;9.88;;;7.15;;
45408;SDS011;31162;51.076;3.784;2024-01-07T00:54:27;7.97;;;6.22;;
45408;SDS011;31162;51.076;3.784;2024-01-07T00:56:52;8.77;;;6.70;;
45408;SDS011;31162;51.076;3.784;2024-01-07T00:59:18;10.10;;;7.22;;
45408;SDS011;31162;51.076;3.784;2024-01-07T01:01:43;9.98;;;7.45;;
45408;SDS011;31162;51.076;3.784;2024-01-07T01:04:09;11.57;;;8.10;;
45408;SDS011;31162;51.076;3.784;2024-01-07T01:06:35;8.50;;;7.60;;
45408;SDS011;31162;51.076;3.784;2024-01-07T01:09:00;9.43;;;7.70;;
45408;SDS011;31162;51.076;3.784;2024-01-07T01:11:26;8.23;;;7.00;;
45408;SDS011;31162;51.076;3.784;2024-01-07T01:13:51;7.45;;;6.65;;
45408;SDS011;31162;51.076;3.784;2024-01-07T01:16:17;6.80;;;6.10;;
45408;SDS011;31162;51.076;3.784;2024-01-07T01:18:43;6.65;;;6.00;;
45408;SDS011;31162;51.076;3.784;2024-01-07T01:21:09;7.03;;;6.35;;
45408;SDS011;31162;51.076;3.784;2024-01-07T01:23:34;6.25;;;5.65;;
45408;SDS011;31162;51.076;3.784;2024-01-07T01:26:00;6.72;;;5.75;;
45408;SDS011;31162;51.076;3.784;2024-01-07T01:28:26;8.10;;;5.75;;
45408;SDS011;31162;51.076;3.784;2024-01-07T01:30:51;6.20;;;5.50;;
45408;SDS011;31162;51.076;3.784;2024-01-07T01:33:17;8.80;;;6.43;;
45408;SDS011;31162;51.076;3.784;2024-01-07T01:35:43;9.52;;;6.72;;
45408;SDS011;31162;51.076;3.784;2024-01-07T01:38:08;8.00;;;6.53;;
45408;SDS011;31162;51.076;3.784;2024-01-07T01:40:34;6.90;;;5.88;;
45408;SDS011;31162;51.076;3.784;2024-01-07T01:43:00;7.85;;;6.97;;
45408;SDS011;31162;51.076;3.784;2024-01-07T01:45:25;7.10;;;6.40;;
45408;SDS011;31162;51.076;3.784;2024-01-07T01:47:51;7.30;;;6.50;;
45408;SDS011;31162;51.076;3.784;2024-01-07T01:50:17;7.78;;;6.97;;
45408;SDS011;31162;51.076;3.784;2024-01-07T01:52:43;7.45;;;6.63;;
45408;SDS011;31162;51.076;3.784;2024-01-07T01:55:10;9.30;;;8.23;;
45408;SDS011;31162;51.076;3.784;2024-01-07T01:57:36;7.85;;;7.05;;
45408;SDS011;31162;51.076;3.784;2024-01-07T02:00:04;9.15;;;7.90;;
45408;SDS011;31162;51.076;3.784;2024-01-07T02:02:31;10.02;;;7.97;;
45408;SDS011;31162;51.076;3.784;2024-01-07T02:04:59;8.80;;;7.90;;
45408;SDS011;31162;51.076;3.784;2024-01-07T02:07:26;9.55;;;8.55;;
45408;SDS011;31162;51.076;3.784;2024-01-07T02:09:53;9.90;;;8.90;;
45408;SDS011;31162;51.076;3.784;2024-01-07T02:12:18;9.30;;;8.30;;
45408;SDS011;31162;51.076;3.784;2024-01-07T02:14:44;12.48;;;10.07;;
45408;SDS011;31162;51.076;3.784;2024-01-07T02:17:10;11.32;;;9.68;;
45408;SDS011;31162;51.076;3.784;2024-01-07T02:19:35;11.30;;;10.15;;
45408;SDS011;31162;51.076;3.784;2024-01-07T02:22:01;12.10;;;10.02;;
45408;SDS011;31162;51.076;3.784;2024-01-07T02:24:27;11.73;;;10.10;;
45408;SDS011;31162;51.076;3.784;2024-01-07T02:26:52;11.27;;;10.18;;
45408;SDS011;31162;51.076;3.784;2024-01-07T02:29:18;11.38;;;10.18;;
45408;SDS011;31162;51.076;3.784;2024-01-07T02:31:43;13.25;;;10.85;;
45408;SDS011;31162;51.076;3.784;2024-01-07T02:34:09;12.13;;;10.82;;
45408;SDS011;31162;51.076;3.784;2024-01-07T02:36:35;12.45;;;10.95;;
45408;SDS011;31162;51.076;3.784;2024-01-07T02:39:01;13.00;;;11.68;;
45408;SDS011;31162;51.076;3.784;2024-01-07T02:41:27;14.35;;;12.52;;
45408;SDS011;31162;51.076;3.784;2024-01-07T02:43:52;14.48;;;11.73;;
45408;SDS011;31162;51.076;3.784;2024-01-07T02:46:19;12.30;;;11.00;;
45408;SDS011;31162;51.076;3.784;2024-01-07T02:48:45;14.02;;;12.52;;
45408;SDS011;31162;51.076;3.784;2024-01-07T02:51:11;14.43;;;12.93;;
45408;SDS011;31162;51.076;3.784;2024-01-07T02:53:36;13.77;;;12.27;;
45408;SDS011;31162;51.076;3.784;2024-01-07T02:56:02;14.73;;;12.63;;
45408;SDS011;31162;51.076;3.784;2024-01-07T02:58:28;15.95;;;14.25;;
45408;SDS011;31162;51.076;3.784;2024-01-07T03:00:53;14.77;;;13.18;;
45408;SDS011;31162;51.076;3.784;2024-01-07T03:03:19;14.85;;;13.27;;
45408;SDS011;31162;51.076;3.784;2024-01-07T03:05:45;16.73;;;13.68;;
45408;SDS011;31162;51.076;3.784;2024-01-07T03:08:10;15.30;;;13.63;;
45408;SDS011;31162;51.076;3.784;2024-01-07T03:10:36;14.80;;;13.25;;
45408;SDS011;31162;51.076;3.784;2024-01-07T03:13:01;17.23;;;15.43;;
45408;SDS011;31162;51.076;3.784;2024-01-07T03:15:28;15.82;;;14.13;;
45408;SDS011;31162;51.076;3.784;2024-01-07T03:17:54;16.52;;;14.57;;
45408;SDS011;31162;51.076;3.784;2024-01-07T03:20:19;18.10;;;15.77;;
45408;SDS011;31162;51.076;3.784;2024-01-07T03:22:45;16.85;;;15.05;;
45408;SDS011;31162;51.076;3.784;2024-01-07T03:25:11;18.05;;;16.10;;
45408;SDS011;31162;51.076;3.784;2024-01-07T03:27:36;18.70;;;15.90;;
45408;SDS011;31162;51.076;3.784;2024-01-07T03:30:02;17.55;;;15.65;;
45408;SDS011;31162;51.076;3.784;2024-01-07T03:32:28;18.33;;;16.27;;
45408;SDS011;31162;51.076;3.784;2024-01-07T03:34:53;18.50;;;16.42;;
45408;SDS011;31162;51.076;3.784;2024-01-07T03:37:19;18.30;;;16.30;;
45408;SDS011;31162;51.076;3.784;2024-01-07T03:39:46;19.88;;;17.75;;
45408;SDS011;31162;51.076;3.784;2024-01-07T03:42:12;18.30;;;16.13;;
45408;SDS011;31162;51.076;3.784;2024-01-07T03:44:38;18.52;;;16.63;;
45408;SDS011;31162;51.076;3.784;2024-01-07T03:47:04;19.42;;;17.08;;
45408;SDS011;31162;51.076;3.784;2024-01-07T03:49:30;18.63;;;16.73;;
45408;SDS011;31162;51.076;3.784;2024-01-07T03:51:56;19.77;;;17.67;;
45408;SDS011;31162;51.076;3.784;2024-01-07T03:54:21;19.90;;;17.83;;
45408;SDS011;31162;51.076;3.784;2024-01-07T03:56:47;19.55;;;17.48;;
45408;SDS011;31162;51.076;3.784;2024-01-07T03:59:13;19.77;;;17.70;;
45408;SDS011;31162;51.076;3.784;2024-01-07T04:01:38;19.33;;;17.38;;
45408;SDS011;31162;51.076;3.784;2024-01-07T04:04:04;20.58;;;18.33;;
45408;SDS011;31162;51.076;3.784;2024-01-07T04:06:30;21.17;;;17.73;;
45408;SDS011;31162;51.076;3.784;2024-01-07T04:08:55;17.83;;;15.93;;
45408;SDS011;31162;51.076;3.784;2024-01-07T04:11:21;19.88;;;16.98;;
45408;SDS011;31162;51.076;3.784;2024-01-07T04:13:47;17.85;;;15.88;;
45408;SDS011;31162;51.076;3.784;2024-01-07T04:16:16;16.55;;;14.85;;
45408;SDS011;31162;51.076;3.784;2024-01-07T04:18:42;16.08;;;14.57;;
45408;SDS011;31162;51.076;3.784;2024-01-07T04:21:11;15.63;;;14.02;;
45408;SDS011;31162;51.076;3.784;2024-01-07T04:23:38;15.45;;;13.85;;
45408;SDS011;31162;51.076;3.784;2024-01-07T04:26:05;15.57;;;13.98;;
45408;SDS011;31162;51.076;3.784;2024-01-07T04:28:32;16.10;;;14.40;;
45408;SDS011;31162;51.076;3.784;2024-01-07T04:30:57;14.23;;;12.68;;
45408;SDS011;31162;51.076;3.784;2024-01-07T04:33:23;15.68;;;14.15;;
45408;SDS011;31162;51.076;3.784;2024-01-07T04:35:48;15.45;;;13.85;;
45408;SDS011;31162;51.076;3.784;2024-01-07T04:38:14;15.27;;;13.77;;
45408;SDS011;31162;51.076;3.784;2024-01-07T04:40:40;14.43;;;13.02;;
45408;SDS011;31162;51.076;3.784;2024-01-07T04:43:05;13.10;;;11.80;;
45408;SDS011;31162;51.076;3.784;2024-01-07T04:45:31;12.48;;;11.27;;
45408;SDS011;31162;51.076;3.784;2024-01-07T04:47:56;12.60;;;11.40;;
45408;SDS011;31162;51.076;3.784;2024-01-07T04:50:22;13.93;;;12.52;;
45408;SDS011;31162;51.076;3.784;2024-01-07T04:52:48;13.60;;;12.25;;
45408;SDS011;31162;51.076;3.784;2024-01-07T04:55:13;13.25;;;11.88;;
45408;SDS011;31162;51.076;3.784;2024-01-07T04:57:39;12.95;;;11.65;;
45408;SDS011;31162;51.076;3.784;2024-01-07T05:00:05;13.82;;;12.40;;
45408;SDS011;31162;51.076;3.784;2024-01-07T05:02:31;14.10;;;12.70;;
45408;SDS011;31162;51.076;3.784;2024-01-07T05:04:56;14.30;;;12.88;;
45408;SDS011;31162;51.076;3.784;2024-01-07T05:07:22;15.35;;;13.85;;
45408;SDS011;31162;51.076;3.784;2024-01-07T05:09:48;14.82;;;13.32;;
45408;SDS011;31162;51.076;3.784;2024-01-07T05:12:13;15.05;;;13.60;;
45408;SDS011;31162;51.076;3.784;2024-01-07T05:14:40;15.80;;;14.10;;
45408;SDS011;31162;51.076;3.784;2024-01-07T05:17:07;15.88;;;14.18;;
45408;SDS011;31162;51.076;3.784;2024-01-07T05:19:33;15.82;;;14.13;;
45408;SDS011;31162;51.076;3.784;2024-01-07T05:21:59;17.23;;;15.43;;
45408;SDS011;31162;51.076;3.784;2024-01-07T05:24:26;16.42;;;14.73;;
45408;SDS011;31162;51.076;3.784;2024-01-07T05:26:51;17.77;;;15.57;;
45408;SDS011;31162;51.076;3.784;2024-01-07T05:29:17;17.08;;;15.35;;
45408;SDS011;31162;51.076;3.784;2024-01-07T05:31:43;19.83;;;17.70;;
45408;SDS011;31162;51.076;3.784;2024-01-07T05:34:09;17.63;;;15.82;;
45408;SDS011;31162;51.076;3.784;2024-01-07T05:36:34;17.92;;;15.93;;
45408;SDS011;31162;51.076;3.784;2024-01-07T05:39:00;17.40;;;15.60;;
45408;SDS011;31162;51.076;3.784;2024-01-07T05:41:26;18.08;;;16.17;;
45408;SDS011;31162;51.076;3.784;2024-01-07T05:43:52;18.50;;;16.60;;
45408;SDS011;31162;51.076;3.784;2024-01-07T05:46:18;17.73;;;15.88;;
45408;SDS011;31162;51.076;3.784;2024-01-07T05:48:44;17.60;;;15.80;;
45408;SDS011;31162;51.076;3.784;2024-01-07T05:51:12;17.58;;;15.68;;
45408;SDS011;31162;51.076;3.784;2024-01-07T05:53:38;17.05;;;15.00;;
45408;SDS011;31162;51.076;3.784;2024-01-07T05:56:05;17.90;;;16.00;;
45408;SDS011;31162;51.076;3.784;2024-01-07T05:58:30;16.90;;;15.20;;
45408;SDS011;31162;51.076;3.784;2024-01-07T06:00:56;16.75;;;14.88;;
45408;SDS011;31162;51.076;3.784;2024-01-07T06:03:22;16.48;;;14.82;;
45408;SDS011;31162;51.076;3.784;2024-01-07T06:05:47;17.15;;;15.45;;
45408;SDS011;31162;51.076;3.784;2024-01-07T06:08:13;19.77;;;17.23;;
45408;SDS011;31162;51.076;3.784;2024-01-07T06:10:39;17.10;;;15.35;;
45408;SDS011;31162;51.076;3.784;2024-01-07T06:13:05;17.40;;;15.05;;
45408;SDS011;31162;51.076;3.784;2024-01-07T06:15:31;17.05;;;15.25;;
45408;SDS011;31162;51.076;3.784;2024-01-07T06:17:57;16.73;;;15.02;;
45408;SDS011;31162;51.076;3.784;2024-01-07T06:20:22;17.55;;;15.75;;
45408;SDS011;31162;51.076;3.784;2024-01-07T06:22:48;18.15;;;16.27;;
45408;SDS011;31162;51.076;3.784;2024-01-07T06:25:14;18.55;;;16.50;;
45408;SDS011;31162;51.076;3.784;2024-01-07T06:27:40;18.88;;;16.88;;
45408;SDS011;31162;51.076;3.784;2024-01-07T06:30:06;20.70;;;18.50;;
45408;SDS011;31162;51.076;3.784;2024-01-07T06:32:33;22.63;;;18.42;;
45408;SDS011;31162;51.076;3.784;2024-01-07T06:34:59;18.60;;;16.63;;
45408;SDS011;31162;51.076;3.784;2024-01-07T06:37:25;20.42;;;18.20;;
45408;SDS011;31162;51.076;3.784;2024-01-07T06:39:53;19.52;;;17.42;;
45408;SDS011;31162;51.076;3.784;2024-01-07T06:42:19;21.63;;;17.65;;
45408;SDS011;31162;51.076;3.784;2024-01-07T06:44:45;21.60;;;18.02;;
45408;SDS011;31162;51.076;3.784;2024-01-07T06:47:11;24.60;;;19.42;;
45408;SDS011;31162;51.076;3.784;2024-01-07T06:49:36;21.27;;;18.05;;
45408;SDS011;31162;51.076;3.784;2024-01-07T06:52:03;19.25;;;16.98;;
45408;SDS011;31162;51.076;3.784;2024-01-07T06:54:30;23.10;;;18.83;;
45408;SDS011;31162;51.076;3.784;2024-01-07T06:56:55;22.48;;;18.25;;
45408;SDS011;31162;51.076;3.784;2024-01-07T06:59:21;23.90;;;18.00;;
45408;SDS011;31162;51.076;3.784;2024-01-07T07:01:46;21.05;;;18.42;;
45408;SDS011;31162;51.076;3.784;2024-01-07T07:04:12;21.83;;;18.35;;
45408;SDS011;31162;51.076;3.784;2024-01-07T07:06:38;23.38;;;18.55;;
45408;SDS011;31162;51.076;3.784;2024-01-07T07:09:03;21.77;;;18.23;;
45408;SDS011;31162;51.076;3.784;2024-01-07T07:11:29;23.27;;;19.25;;
45408;SDS011;31162;51.076;3.784;2024-01-07T07:13:55;25.88;;;20.05;;
45408;SDS011;31162;51.076;3.784;2024-01-07T07:16:21;23.80;;;18.80;;
45408;SDS011;31162;51.076;3.784;2024-01-07T07:18:47;24.23;;;19.67;;
45408;SDS011;31162;51.076;3.784;2024-01-07T07:21:13;24.05;;;19.23;;
45408;SDS011;31162;51.076;3.784;2024-01-07T07:23:38;24.13;;;20.08;;
45408;SDS011;31162;51.076;3.784;2024-01-07T07:26:04;23.90;;;18.45;;
45408;SDS011;31162;51.076;3.784;2024-01-07T07:28:30;23.38;;;18.83;;
45408;SDS011;31162;51.076;3.784;2024-01-07T07:30:55;26.65;;;20.20;;
45408;SDS011;31162;51.076;3.784;2024-01-07T07:33:21;24.20;;;19.45;;
45408;SDS011;31162;51.076;3.784;2024-01-07T07:35:46;25.13;;;19.83;;
45408;SDS011;31162;51.076;3.784;2024-01-07T07:38:12;25.45;;;21.33;;
45408;SDS011;31162;51.076;3.784;2024-01-07T07:40:39;24.73;;;20.60;;
45408;SDS011;31162;51.076;3.784;2024-01-07T07:43:05;26.02;;;20.90;;
45408;SDS011;31162;51.076;3.784;2024-01-07T07:45:32;24.85;;;20.27;;
45408;SDS011;31162;51.076;3.784;2024-01-07T07:47:57;31.08;;;24.33;;
45408;SDS011;31162;51.076;3.784;2024-01-07T07:50:23;30.00;;;23.52;;
45408;SDS011;31162;51.076;3.784;2024-01-07T07:52:49;29.45;;;21.45;;
45408;SDS011;31162;51.076;3.784;2024-01-07T07:55:15;27.77;;;22.55;;
45408;SDS011;31162;51.076;3.784;2024-01-07T07:57:40;26.35;;;20.55;;
45408;SDS011;31162;51.076;3.784;2024-01-07T08:00:06;25.95;;;21.00;;
45408;SDS011;31162;51.076;3.784;2024-01-07T08:02:32;25.13;;;20.52;;
45408;SDS011;31162;51.076;3.784;2024-01-07T08:04:58;25.33;;;21.23;;
45408;SDS011;31162;51.076;3.784;2024-01-07T08:07:24;28.23;;;21.33;;
45408;SDS011;31162;51.076;3.784;2024-01-07T08:09:50;29.80;;;23.25;;
45408;SDS011;31162;51.076;3.784;2024-01-07T08:12:16;28.88;;;23.00;;
45408;SDS011;31162;51.076;3.784;2024-01-07T08:14:41;30.17;;;23.42;;
45408;SDS011;31162;51.076;3.784;2024-01-07T08:17:07;27.67;;;22.00;;
45408;SDS011;31162;51.076;3.784;2024-01-07T08:19:33;29.55;;;22.50;;
45408;SDS011;31162;51.076;3.784;2024-01-07T08:21:59;32.10;;;23.58;;
45408;SDS011;31162;51.076;3.784;2024-01-07T08:24:25;34.45;;;24.20;;
45408;SDS011;31162;51.076;3.784;2024-01-07T08:26:50;36.42;;;26.30;;
45408;SDS011;31162;51.076;3.784;2024-01-07T08:29:17;31.52;;;24.23;;
45408;SDS011;31162;51.076;3.784;2024-01-07T08:31:42;33.42;;;23.67;;
45408;SDS011;31162;51.076;3.784;2024-01-07T08:34:08;32.75;;;24.15;;
45408;SDS011;31162;51.076;3.784;2024-01-07T08:36:34;31.25;;;23.42;;
45408;SDS011;31162;51.076;3.784;2024-01-07T08:39:00;34.15;;;24.60;;
45408;SDS011;31162;51.076;3.784;2024-01-07T08:41:25;36.25;;;23.73;;
45408;SDS011;31162;51.076;3.784;2024-01-07T08:43:51;32.50;;;23.95;;
45408;SDS011;31162;51.076;3.784;2024-01-07T08:46:20;32.28;;;23.38;;
45408;SDS011;31162;51.076;3.784;2024-01-07T08:48:46;33.25;;;23.67;;
45408;SDS011;31162;51.076;3.784;2024-01-07T08:51:12;31.33;;;23.70;;
45408;SDS011;31162;51.076;3.784;2024-01-07T08:53:38;31.95;;;23.15;;
45408;SDS011;31162;51.076;3.784;2024-01-07T08:56:05;31.98;;;23.67;;
45408;SDS011;31162;51.076;3.784;2024-01-07T08:58:31;30.98;;;24.52;;
45408;SDS011;31162;51.076;3.784;2024-01-07T09:00:57;30.10;;;24.05;;
45408;SDS011;31162;51.076;3.784;2024-01-07T09:03:23;37.17;;;28.27;;
45408;SDS011;31162;51.076;3.784;2024-01-07T09:05:49;33.35;;;26.92;;
45408;SDS011;31162;51.076;3.784;2024-01-07T09:08:14;31.48;;;25.17;;
45408;SDS011;31162;51.076;3.784;2024-01-07T09:10:40;34.22;;;24.23;;
45408;SDS011;31162;51.076;3.784;2024-01-07T09:13:06;30.85;;;24.42;;
45408;SDS011;31162;51.076;3.784;2024-01-07T09:15:31;29.60;;;23.88;;
45408;SDS011;31162;51.076;3.784;2024-01-07T09:17:57;32.72;;;24.98;;
45408;SDS011;31162;51.076;3.784;2024-01-07T09:20:23;33.17;;;24.92;;
45408;SDS011;31162;51.076;3.784;2024-01-07T09:22:49;29.38;;;24.38;;
45408;SDS011;31162;51.076;3.784;2024-01-07T09:25:15;32.58;;;24.05;;
45408;SDS011;31162;51.076;3.784;2024-01-07T09:27:41;38.00;;;29.00;;
45408;SDS011;31162;51.076;3.784;2024-01-07T09:30:10;32.97;;;25.00;;
45408;SDS011;31162;51.076;3.784;2024-01-07T09:32:39;33.20;;;25.60;;
45408;SDS011;31162;51.076;3.784;2024-01-07T09:35:08;32.90;;;25.17;;
45408;SDS011;31162;51.076;3.784;2024-01-07T09:37:34;29.90;;;23.85;;
45408;SDS011;31162;51.076;3.784;2024-01-07T09:40:00;32.65;;;24.90;;
45408;SDS011;31162;51.076;3.784;2024-01-07T09:42:26;33.80;;;24.98;;
45408;SDS011;31162;51.076;3.784;2024-01-07T09:44:52;33.63;;;23.75;;
45408;SDS011;31162;51.076;3.784;2024-01-07T09:47:18;32.55;;;23.95;;
45408;SDS011;31162;51.076;3.784;2024-01-07T09:49:45;30.98;;;23.77;;
45408;SDS011;31162;51.076;3.784;2024-01-07T09:52:11;34.20;;;24.50;;
45408;SDS011;31162;51.076;3.784;2024-01-07T09:54:38;32.13;;;23.90;;
45408;SDS011;31162;51.076;3.784;2024-01-07T09:57:05;31.77;;;24.30;;
45408;SDS011;31162;51.076;3.784;2024-01-07T09:59:32;34.25;;;25.33;;
45408;SDS011;31162;51.076;3.784;2024-01-07T10:01:58;33.22;;;24.92;;
45408;SDS011;31162;51.076;3.784;2024-01-07T10:04:24;43.75;;;31.50;;
45408;SDS011;31162;51.076;3.784;2024-01-07T10:06:50;32.95;;;25.73;;
45408;SDS011;31162;51.076;3.784;2024-01-07T10:09:19;35.75;;;25.45;;
45408;SDS011;31162;51.076;3.784;2024-01-07T10:11:46;31.38;;;24.35;;
45408;SDS011;31162;51.076;3.784;2024-01-07T10:14:12;31.35;;;23.25;;
45408;SDS011;31162;51.076;3.784;2024-01-07T10:16:38;30.55;;;22.30;;
45408;SDS011;31162;51.076;3.784;2024-01-07T10:19:04;28.50;;;22.20;;
45408;SDS011;31162;51.076;3.784;2024-01-07T10:21:30;27.73;;;22.42;;
45408;SDS011;31162;51.076;3.784;2024-01-07T10:24:11;26.67;;;21.02;;
45408;SDS011;31162;51.076;3.784;2024-01-07T10:26:38;25.25;;;20.33;;
45408;SDS011;31162;51.076;3.784;2024-01-07T10:29:04;24.50;;;19.75;;
45408;SDS011;31162;51.076;3.784;2024-01-07T10:31:31;22.80;;;20.15;;
45408;SDS011;31162;51.076;3.784;2024-01-07T10:33:57;22.42;;;19.80;;
45408;SDS011;31162;51.076;3.784;2024-01-07T10:36:22;21.05;;;18.58;;
45408;SDS011;31162;51.076;3.784;2024-01-07T10:38:50;22.17;;;18.48;;
45408;SDS011;31162;51.076;3.784;2024-01-07T10:41:19;20.30;;;16.63;;
45408;SDS011;31162;51.076;3.784;2024-01-07T10:43:48;21.42;;;18.90;;
45408;SDS011;31162;51.076;3.784;2024-01-07T10:46:15;20.98;;;17.88;;
45408;SDS011;31162;51.076;3.784;2024-01-07T10:49:00;20.80;;;18.17;;
45408;SDS011;31162;51.076;3.784;2024-01-07T10:51:33;21.88;;;18.50;;
45408;SDS011;31162;51.076;3.784;2024-01-07T10:53:59;21.95;;;19.08;;
45408;SDS011;31162;51.076;3.784;2024-01-07T10:56:30;21.40;;;17.95;;
45408;SDS011;31162;51.076;3.784;2024-01-07T10:59:01;20.55;;;17.58;;
45408;SDS011;31162;51.076;3.784;2024-01-07T11:01:29;20.92;;;17.23;;
45408;SDS011;31162;51.076;3.784;2024-01-07T11:09:03;21.80;;;18.95;;
45408;SDS011;31162;51.076;3.784;2024-01-07T11:11:44;20.98;;;17.85;;
45408;SDS011;31162;51.076;3.784;2024-01-07T11:17:00;22.60;;;18.77;;
45408;SDS011;31162;51.076;3.784;2024-01-07T11:19:27;23.90;;;19.20;;
45408;SDS011;31162;51.076;3.784;2024-01-07T11:21:53;24.27;;;19.85;;
45408;SDS011;31162;51.076;3.784;2024-01-07T11:24:39;21.77;;;18.55;;
45408;SDS011;31162;51.076;3.784;2024-01-07T11:27:08;21.70;;;18.67;;
45408;SDS011;31162;51.076;3.784;2024-01-07T11:29:34;22.55;;;19.38;;
45408;SDS011;31162;51.076;3.784;2024-01-07T11:32:00;23.45;;;18.13;;
45408;SDS011;31162;51.076;3.784;2024-01-07T11:37:12;21.88;;;18.42;;
45408;SDS011;31162;51.076;3.784;2024-01-07T11:39:48;21.25;;;17.63;;
45408;SDS011;31162;51.076;3.784;2024-01-07T11:42:15;22.02;;;18.35;;
45408;SDS011;31162;51.076;3.784;2024-01-07T11:44:45;23.83;;;18.52;;
45408;SDS011;31162;51.076;3.784;2024-01-07T11:47:11;21.58;;;18.60;;
45408;SDS011;31162;51.076;3.784;2024-01-07T11:49:36;21.08;;;18.38;;
45408;SDS011;31162;51.076;3.784;2024-01-07T11:52:04;21.10;;;18.58;;
45408;SDS011;31162;51.076;3.784;2024-01-07T11:54:30;22.10;;;19.75;;
45408;SDS011;31162;51.076;3.784;2024-01-07T11:56:56;22.63;;;19.80;;
45408;SDS011;31162;51.076;3.784;2024-01-07T11:59:23;24.48;;;20.15;;
45408;SDS011;31162;51.076;3.784;2024-01-07T12:01:49;22.08;;;19.73;;
45408;SDS011;31162;51.076;3.784;2024-01-07T12:04:14;23.00;;;20.23;;
45408;SDS011;31162;51.076;3.784;2024-01-07T12:06:40;25.95;;;22.00;;
45408;SDS011;31162;51.076;3.784;2024-01-07T12:09:06;22.00;;;19.77;;
45408;SDS011;31162;51.076;3.784;2024-01-07T12:11:32;20.65;;;18.42;;
45408;SDS011;31162;51.076;3.784;2024-01-07T12:13:58;21.45;;;19.15;;
45408;SDS011;31162;51.076;3.784;2024-01-07T12:16:25;20.20;;;17.58;;
45408;SDS011;31162;51.076;3.784;2024-01-07T12:18:51;20.55;;;18.15;;
45408;SDS011;31162;51.076;3.784;2024-01-07T12:21:19;22.77;;;17.70;;
45408;SDS011;31162;51.076;3.784;2024-01-07T12:23:48;20.23;;;18.02;;
45408;SDS011;31162;51.076;3.784;2024-01-07T12:26:19;20.35;;;18.00;;
45408;SDS011;31162;51.076;3.784;2024-01-07T12:28:45;19.63;;;17.63;;
45408;SDS011;31162;51.076;3.784;2024-01-07T12:31:17;20.23;;;17.92;;
45408;SDS011;31162;51.076;3.784;2024-01-07T12:33:43;20.92;;;18.70;;
45408;SDS011;31162;51.076;3.784;2024-01-07T12:36:09;21.40;;;19.08;;
45408;SDS011;31162;51.076;3.784;2024-01-07T12:38:38;22.58;;;19.10;;
45408;SDS011;31162;51.076;3.784;2024-01-07T12:41:04;23.63;;;19.48;;
45408;SDS011;31162;51.076;3.784;2024-01-07T12:43:30;20.98;;;18.27;;
45408;SDS011;31162;51.076;3.784;2024-01-07T12:45:56;20.33;;;18.10;;
45408;SDS011;31162;51.076;3.784;2024-01-07T12:48:23;20.42;;;18.35;;
45408;SDS011;31162;51.076;3.784;2024-01-07T12:50:48;21.55;;;19.23;;
45408;SDS011;31162;51.076;3.784;2024-01-07T12:53:14;21.58;;;19.27;;
45408;SDS011;31162;51.076;3.784;2024-01-07T12:55:40;21.95;;;19.60;;
45408;SDS011;31162;51.076;3.784;2024-01-07T12:58:05;22.55;;;20.23;;
45408;SDS011;31162;51.076;3.784;2024-01-07T13:00:32;22.35;;;19.95;;
45408;SDS011;31162;51.076;3.784;2024-01-07T13:02:59;21.83;;;19.52;;
45408;SDS011;31162;51.076;3.784;2024-01-07T13:05:24;21.60;;;19.27;;
45408;SDS011;31162;51.076;3.784;2024-01-07T13:07:50;21.98;;;19.50;;
45408;SDS011;31162;51.076;3.784;2024-01-07T13:10:16;20.55;;;18.35;;
45408;SDS011;31162;51.076;3.784;2024-01-07T13:12:41;21.13;;;18.92;;
45408;SDS011;31162;51.076;3.784;2024-01-07T13:15:07;23.20;;;19.55;;
45408;SDS011;31162;51.076;3.784;2024-01-07T13:17:33;22.20;;;19.45;;
45408;SDS011;31162;51.076;3.784;2024-01-07T13:19:59;19.48;;;17.45;;
45408;SDS011;31162;51.076;3.784;2024-01-07T13:22:25;19.95;;;17.90;;
45408;SDS011;31162;51.076;3.784;2024-01-07T13:24:52;20.35;;;18.25;;
45408;SDS011;31162;51.076;3.784;2024-01-07T13:27:19;19.52;;;17.45;;
45408;SDS011;31162;51.076;3.784;2024-01-07T13:29:47;20.15;;;17.55;;
45408;SDS011;31162;51.076;3.784;2024-01-07T13:32:12;18.38;;;16.20;;
45408;SDS011;31162;51.076;3.784;2024-01-07T13:34:45;18.17;;;16.33;;
45408;SDS011;31162;51.076;3.784;2024-01-07T13:37:10;17.38;;;15.63;;
45408;SDS011;31162;51.076;3.784;2024-01-07T13:39:37;17.48;;;15.77;;
45408;SDS011;31162;51.076;3.784;2024-01-07T13:42:03;17.65;;;15.85;;
45408;SDS011;31162;51.076;3.784;2024-01-07T13:44:29;16.90;;;15.20;;
45408;SDS011;31162;51.076;3.784;2024-01-07T13:46:55;19.50;;;15.82;;
45408;SDS011;31162;51.076;3.784;2024-01-07T13:49:21;19.10;;;17.20;;
45408;SDS011;31162;51.076;3.784;2024-01-07T13:51:47;17.75;;;16.05;;
45408;SDS011;31162;51.076;3.784;2024-01-07T13:54:12;23.55;;;20.85;;
45408;SDS011;31162;51.076;3.784;2024-01-07T13:56:40;18.65;;;16.67;;
45408;SDS011;31162;51.076;3.784;2024-01-07T13:59:08;17.90;;;16.10;;
45408;SDS011;31162;51.076;3.784;2024-01-07T14:01:34;18.00;;;16.10;;
45408;SDS011;31162;51.076;3.784;2024-01-07T14:03:59;18.25;;;16.38;;
45408;SDS011;31162;51.076;3.784;2024-01-07T14:06:25;18.52;;;16.52;;
45408;SDS011;31162;51.076;3.784;2024-01-07T14:08:51;18.45;;;16.65;;
45408;SDS011;31162;51.076;3.784;2024-01-07T14:11:17;18.27;;;16.38;;
45408;SDS011;31162;51.076;3.784;2024-01-07T14:13:43;19.75;;;16.73;;
45408;SDS011;31162;51.076;3.784;2024-01-07T14:16:12;18.67;;;16.77;;
45408;SDS011;31162;51.076;3.784;2024-01-07T14:18:38;18.52;;;16.60;;
45408;SDS011;31162;51.076;3.784;2024-01-07T14:21:04;17.55;;;14.68;;
45408;SDS011;31162;51.076;3.784;2024-01-07T14:23:30;17.48;;;15.13;;
45408;SDS011;31162;51.076;3.784;2024-01-07T14:25:57;16.67;;;14.55;;
45408;SDS011;31162;51.076;3.784;2024-01-07T14:28:23;16.13;;;14.52;;
45408;SDS011;31162;51.076;3.784;2024-01-07T14:30:49;16.88;;;14.48;;